Sanbornville, New Hampshire
Current Conditions -  °F | °C
As of 8:55 PM on Friday 24 Oct 2014 (Local Time) from KSFM Reporting Station
Overcast Overcast  
Wind Chill: 48°   Ceiling: 3700
Heat Index: 48°   Visibility: 10mi
Dew Point: 41°   Wind: 3mph
Humidity: 76%   Direction: 280°W
Pressure: 29.72"   Gusts: NA
Location:  43.55°N, 71.03°W
Report Text: KSFM 250055Z AUTO 28003KT 10SM SCT023 OVC037 09/05 A2972 RMK AO1
Loading
Personal Weather Stations






























Interactive Weather Map
Tropical Storm Tracking
New forecast layout! Learn more

10-Day Weather Forecast

Advertisements
Track Severe Weather on mobile